createdAt,value
2023-03-03T00:00:02.393Z,102086.56
2023-03-03T00:02:40.299Z,102103.50
2023-03-03T00:05:15.462Z,102104.44
2023-03-03T00:07:44.964Z,102107.72
2023-03-03T00:10:13.067Z,102112.25
2023-03-03T00:12:48.438Z,102120.13
2023-03-03T00:15:17.944Z,102125.28
2023-03-03T00:17:46.437Z,102115.84
2023-03-03T00:20:41.128Z,102111.84
2023-03-03T00:23:20.478Z,102112.06
2023-03-03T00:25:51.901Z,102113.69
2023-03-03T00:28:25.888Z,102097.25
2023-03-03T00:30:55.299Z,102088.00
2023-03-03T00:33:33.144Z,102083.50
2023-03-03T00:36:23.079Z,102090.03
2023-03-03T00:38:51.182Z,102092.78
2023-03-03T00:41:24.193Z,102098.63
2023-03-03T00:43:52.967Z,102092.38
2023-03-03T00:46:22.635Z,102083.69
2023-03-03T00:48:51.655Z,102089.78
2023-03-03T00:51:29.086Z,102081.19
2023-03-03T00:53:58.271Z,102082.78
2023-03-03T00:56:26.507Z,102085.28
2023-03-03T00:58:54.979Z,102086.88
2023-03-03T01:01:25.593Z,102082.47
2023-03-03T01:03:55.181Z,102074.38
2023-03-03T01:06:24.834Z,102077.56
2023-03-03T01:08:52.941Z,102065.06
2023-03-03T01:11:24.987Z,102062.03
2023-03-03T01:13:54.611Z,102074.28
2023-03-03T01:16:23.030Z,102081.88
2023-03-03T01:18:51.869Z,102070.91
2023-03-03T01:21:19.773Z,102071.94
2023-03-03T01:23:49.065Z,102063.38
2023-03-03T01:26:17.038Z,102065.59
2023-03-03T01:28:45.106Z,102062.19
2023-03-03T01:31:13.638Z,102063.41
2023-03-03T01:33:41.559Z,102058.69
2023-03-03T01:36:09.631Z,102060.41
2023-03-03T01:38:38.417Z,102045.69
2023-03-03T01:41:07.817Z,102044.84
2023-03-03T01:43:35.934Z,102038.00
2023-03-03T01:46:47.767Z,102038.19
2023-03-03T01:49:20.475Z,102037.50
2023-03-03T01:51:51.979Z,102032.13
2023-03-03T01:54:25.159Z,102027.66
2023-03-03T01:56:57.003Z,102022.22
2023-03-03T01:59:29.849Z,102029.97
2023-03-03T02:01:57.831Z,102045.22
2023-03-03T02:04:26.505Z,102043.66
2023-03-03T02:06:59.217Z,102035.56
2023-03-03T02:09:35.145Z,102036.19
2023-03-03T02:12:08.147Z,102038.31
2023-03-03T02:14:36.314Z,102048.75
2023-03-03T02:17:04.437Z,102044.03
2023-03-03T02:19:40.746Z,102046.78
2023-03-03T02:22:08.922Z,102054.81
2023-03-03T02:24:43.467Z,102052.53
2023-03-03T02:27:14.075Z,102058.16
2023-03-03T02:29:43.639Z,102046.81
2023-03-03T02:32:12.434Z,102055.34
2023-03-03T02:34:51.149Z,102063.66
2023-03-03T02:37:20.559Z,102060.44
2023-03-03T02:39:48.697Z,102053.34
2023-03-03T02:42:24.102Z,102049.69
2023-03-03T02:44:55.560Z,102050.88
2023-03-03T02:47:23.481Z,102052.66
2023-03-03T02:49:51.411Z,102054.97
2023-03-03T02:52:19.397Z,102049.56
2023-03-03T02:54:48.462Z,102055.09
2023-03-03T02:57:16.412Z,102044.19
2023-03-03T02:59:45.673Z,102052.41
2023-03-03T03:02:19.323Z,102061.19
2023-03-03T03:04:47.751Z,102067.78
2023-03-03T03:07:19.951Z,102069.31
2023-03-03T03:09:47.885Z,102061.59
2023-03-03T03:12:16.045Z,102068.75
2023-03-03T03:14:45.985Z,102064.06
2023-03-03T03:17:14.698Z,102077.09
2023-03-03T03:19:44.689Z,102081.28
2023-03-03T03:22:12.808Z,102082.84
2023-03-03T03:24:40.749Z,102089.34
2023-03-03T03:27:10.438Z,102086.50
2023-03-03T03:29:38.428Z,102084.41
2023-03-03T03:32:08.505Z,102081.44
2023-03-03T03:34:36.916Z,102086.72
2023-03-03T03:37:05.648Z,102095.63
2023-03-03T03:39:34.539Z,102096.22
2023-03-03T03:42:02.588Z,102099.31
2023-03-03T03:44:30.788Z,102092.16
2023-03-03T03:46:58.681Z,102075.09
2023-03-03T03:49:28.598Z,102091.25
2023-03-03T03:51:58.637Z,102077.47
2023-03-03T03:54:29.823Z,102083.13
2023-03-03T03:56:58.256Z,102081.72
2023-03-03T03:59:27.978Z,102063.44
2023-03-03T04:01:56.010Z,102063.69
2023-03-03T04:04:25.240Z,102054.03
2023-03-03T04:06:55.531Z,102055.84
2023-03-03T04:09:23.625Z,102057.91
2023-03-03T04:11:51.509Z,102064.59
2023-03-03T04:14:19.679Z,102054.63
2023-03-03T04:16:47.616Z,102050.34
2023-03-03T04:19:15.565Z,102045.88
2023-03-03T04:21:44.239Z,102051.06
2023-03-03T04:24:13.581Z,102052.88
2023-03-03T04:26:41.916Z,102051.56
2023-03-03T04:29:11.678Z,102053.69
2023-03-03T04:31:41.249Z,102051.00
2023-03-03T04:34:10.965Z,102052.66
2023-03-03T04:36:39.882Z,102054.00
2023-03-03T04:39:08.083Z,102050.72
2023-03-03T04:41:37.409Z,102050.72
2023-03-03T04:44:05.613Z,102051.56
2023-03-03T04:46:33.760Z,102045.88
2023-03-03T04:49:03.868Z,102053.88
2023-03-03T04:51:32.709Z,102052.16
2023-03-03T04:54:00.629Z,102052.72
2023-03-03T04:56:31.721Z,102060.41
2023-03-03T04:59:01.076Z,102067.53
2023-03-03T05:01:29.504Z,102048.91
2023-03-03T05:03:57.595Z,102051.03
2023-03-03T05:06:25.659Z,102045.63
2023-03-03T05:08:53.625Z,102049.63
2023-03-03T05:11:21.721Z,102045.75
2023-03-03T05:13:49.559Z,102039.56
2023-03-03T05:16:18.819Z,102048.56
2023-03-03T05:18:47.477Z,102041.69
2023-03-03T05:21:15.512Z,102040.00
2023-03-03T05:23:43.446Z,102031.47
2023-03-03T05:26:11.707Z,102022.19
2023-03-03T05:28:39.588Z,102040.00
2023-03-03T05:31:07.531Z,102034.28
2023-03-03T05:33:36.926Z,102039.47
2023-03-03T05:36:05.244Z,102044.31
2023-03-03T05:38:33.093Z,102046.72
2023-03-03T05:41:00.961Z,102061.75
2023-03-03T05:43:29.280Z,102060.59
2023-03-03T05:45:57.687Z,102062.88
2023-03-03T05:48:25.746Z,102062.88
2023-03-03T05:50:55.044Z,102072.41
2023-03-03T05:53:22.897Z,102063.81
2023-03-03T05:55:50.816Z,102068.22
2023-03-03T05:58:18.672Z,102070.72
2023-03-03T06:00:46.564Z,102069.63
2023-03-03T06:03:14.482Z,102069.34
2023-03-03T06:05:42.363Z,102073.63
2023-03-03T06:08:11.619Z,102067.31
2023-03-03T06:10:39.475Z,102066.47
2023-03-03T06:13:09.968Z,102063.81
2023-03-03T06:15:38.140Z,102068.91
2023-03-03T06:18:06.209Z,102072.34
2023-03-03T06:20:35.392Z,102073.06
2023-03-03T06:23:03.333Z,102074.34
2023-03-03T06:25:35.654Z,102089.00
2023-03-03T06:28:03.729Z,102083.34
2023-03-03T06:30:31.726Z,102086.41
2023-03-03T06:32:59.586Z,102090.91
2023-03-03T06:35:28.652Z,102086.72
2023-03-03T06:37:56.587Z,102092.69
2023-03-03T06:40:24.486Z,102091.31
2023-03-03T06:42:53.743Z,102088.28
2023-03-03T06:45:21.589Z,102092.13
2023-03-03T06:47:49.564Z,102093.41
2023-03-03T06:50:21.361Z,102092.47
2023-03-03T06:52:49.270Z,102105.75
2023-03-03T06:55:23.681Z,102092.22
2023-03-03T06:57:55.836Z,102107.44
2023-03-03T07:00:29.536Z,102109.75
2023-03-03T07:03:02.758Z,102116.97
2023-03-03T07:05:30.842Z,102124.53
2023-03-03T07:07:58.881Z,102130.72
2023-03-03T07:10:28.728Z,102121.97
2023-03-03T07:13:03.244Z,102124.53
2023-03-03T07:15:36.374Z,102119.81
2023-03-03T07:18:07.852Z,102114.25
2023-03-03T07:20:39.909Z,102118.03
2023-03-03T07:23:20.159Z,102136.28
2023-03-03T07:25:48.585Z,102138.78
2023-03-03T07:28:24.033Z,102135.34
2023-03-03T07:30:52.184Z,102131.66
2023-03-03T07:33:26.595Z,102138.56
2023-03-03T07:35:56.365Z,102138.69
2023-03-03T07:38:32.626Z,102139.44
2023-03-03T07:41:02.996Z,102146.16
2023-03-03T07:43:36.503Z,102121.78
2023-03-03T07:46:22.889Z,102150.63
2023-03-03T07:48:51.987Z,102139.66
2023-03-03T07:51:25.303Z,102155.78
2023-03-03T07:53:55.019Z,102153.91
2023-03-03T07:56:30.482Z,102154.09
2023-03-03T07:58:59.922Z,102153.47
2023-03-03T08:01:40.816Z,102158.53
2023-03-03T08:04:18.329Z,102154.44
2023-03-03T08:06:49.465Z,102147.59
2023-03-03T08:09:40.778Z,102150.59
2023-03-03T08:12:36.162Z,102155.22
2023-03-03T08:15:21.135Z,102152.41
2023-03-03T08:17:50.472Z,102150.44
2023-03-03T08:20:46.448Z,102138.81
2023-03-03T08:23:15.959Z,102140.00
2023-03-03T08:25:44.699Z,102144.94
2023-03-03T08:28:14.065Z,102147.94
2023-03-03T08:30:44.503Z,102146.53
2023-03-03T08:33:12.982Z,102145.00
2023-03-03T08:35:42.153Z,102149.31
2023-03-03T08:38:10.770Z,102134.84
2023-03-03T08:40:38.992Z,102146.59
2023-03-03T08:43:07.016Z,102150.50
2023-03-03T08:45:35.689Z,102153.53
2023-03-03T08:48:06.257Z,102151.75
2023-03-03T08:50:34.803Z,102147.94
2023-03-03T08:53:02.715Z,102155.53
2023-03-03T08:55:30.742Z,102147.88
2023-03-03T08:57:58.866Z,102145.13
2023-03-03T09:00:27.561Z,102146.44
2023-03-03T09:02:55.884Z,102143.19
2023-03-03T09:05:25.882Z,102142.59
2023-03-03T09:07:54.316Z,102144.03
2023-03-03T09:10:29.329Z,102133.69
2023-03-03T09:13:01.248Z,102124.34
2023-03-03T09:15:30.935Z,102139.06
2023-03-03T09:18:00.459Z,102131.03
2023-03-03T09:20:38.384Z,102127.44
2023-03-03T09:23:29.993Z,102127.22
2023-03-03T09:25:58.638Z,102120.50
2023-03-03T09:28:29.186Z,102126.88
2023-03-03T09:31:01.151Z,102136.38
2023-03-03T09:33:33.423Z,102127.16
2023-03-03T09:36:13.652Z,102127.22
2023-03-03T09:38:45.710Z,102126.84
2023-03-03T09:41:51.768Z,102135.56
2023-03-03T09:44:41.994Z,102130.91
2023-03-03T09:47:29.849Z,102150.50
2023-03-03T09:50:10.283Z,102143.38
2023-03-03T09:52:47.530Z,102139.47
2023-03-03T09:55:30.247Z,102132.09
2023-03-03T09:58:15.154Z,102130.19
2023-03-03T10:00:56.116Z,102140.28
2023-03-03T10:03:46.429Z,102129.03
2023-03-03T10:06:26.081Z,102118.63
2023-03-03T10:09:07.844Z,102131.69
2023-03-03T10:11:45.733Z,102133.66
2023-03-03T10:14:50.530Z,102137.91
2023-03-03T10:17:31.579Z,102144.16
2023-03-03T10:20:13.589Z,102126.41
2023-03-03T10:22:51.810Z,102134.59
2023-03-03T10:25:30.179Z,102120.19
2023-03-03T10:28:09.462Z,102125.72
2023-03-03T10:31:02.511Z,102129.28
2023-03-03T10:33:42.769Z,102130.31
2023-03-03T10:36:46.584Z,102120.59
2023-03-03T10:39:30.421Z,102129.31
2023-03-03T10:42:12.051Z,102127.31
2023-03-03T10:44:58.939Z,102132.22
2023-03-03T10:47:41.605Z,102122.22
2023-03-03T10:50:22.224Z,102119.38
2023-03-03T10:52:56.227Z,102123.75
2023-03-03T10:55:39.360Z,102120.38
2023-03-03T10:58:22.617Z,102122.03
2023-03-03T11:00:57.590Z,102139.09
2023-03-03T11:03:43.289Z,102130.03
2023-03-03T11:06:19.920Z,102134.44
2023-03-03T11:08:53.913Z,102127.03
2023-03-03T11:11:30.403Z,102119.09
2023-03-03T11:14:10.278Z,102129.88
2023-03-03T11:16:49.086Z,102135.72
2023-03-03T11:19:36.835Z,102118.53
2023-03-03T11:22:14.848Z,102120.66
2023-03-03T11:24:54.217Z,102122.97
2023-03-03T11:27:44.693Z,102114.25
2023-03-03T11:30:34.551Z,102117.34
2023-03-03T11:33:05.906Z,102118.59
2023-03-03T11:35:45.436Z,102121.41
2023-03-03T11:38:28.640Z,102119.28
2023-03-03T11:41:00.185Z,102114.41
2023-03-03T11:43:37.218Z,102104.44
2023-03-03T11:46:10.055Z,102108.03
2023-03-03T11:48:47.336Z,102112.09
2023-03-03T11:51:21.069Z,102111.41
2023-03-03T11:53:59.489Z,102119.72
2023-03-03T11:56:35.199Z,102103.41
2023-03-03T11:59:30.223Z,102103.78
2023-03-03T12:02:05.169Z,102106.16
2023-03-03T12:04:38.381Z,102092.25
2023-03-03T12:07:19.399Z,102087.16
2023-03-03T12:09:57.420Z,102088.25
2023-03-03T12:12:32.354Z,102082.34
2023-03-03T12:15:20.297Z,102075.47
2023-03-03T12:18:14.676Z,102080.06
2023-03-03T12:20:50.632Z,102073.34
2023-03-03T12:23:39.288Z,102066.94
2023-03-03T12:26:12.915Z,102062.84
2023-03-03T12:28:49.847Z,102056.47
2023-03-03T12:31:37.199Z,102060.44
2023-03-03T12:34:15.001Z,102059.22
2023-03-03T12:37:05.229Z,102045.28
2023-03-03T12:39:46.184Z,102062.28
2023-03-03T12:42:25.306Z,102050.56
2023-03-03T12:45:06.052Z,102048.38
2023-03-03T12:47:39.403Z,102046.38
2023-03-03T12:50:28.400Z,102049.00
2023-03-03T12:53:10.384Z,102043.75
2023-03-03T12:55:48.659Z,102047.63
2023-03-03T12:58:26.655Z,102042.47
2023-03-03T13:01:05.536Z,102035.75
2023-03-03T13:03:55.084Z,102035.59
2023-03-03T13:06:30.815Z,102033.44
2023-03-03T13:09:09.542Z,102022.22
2023-03-03T13:11:48.586Z,102029.31
2023-03-03T13:14:30.631Z,102025.66
2023-03-03T13:17:16.361Z,102020.53
2023-03-03T13:19:50.478Z,102014.22
2023-03-03T13:22:40.603Z,102013.00
2023-03-03T13:25:26.239Z,102014.88
2023-03-03T13:28:01.830Z,102011.31
2023-03-03T13:30:34.195Z,102018.28
2023-03-03T13:33:09.525Z,102009.69
2023-03-03T13:35:45.510Z,102003.91
2023-03-03T13:38:21.757Z,102002.72
2023-03-03T13:40:54.404Z,102009.72
2023-03-03T13:43:27.652Z,102014.94
2023-03-03T13:45:59.899Z,102007.44
2023-03-03T13:48:46.688Z,102009.56
2023-03-03T13:51:27.781Z,102007.28
2023-03-03T13:54:06.519Z,102004.97
2023-03-03T13:56:48.565Z,101990.63
2023-03-03T13:59:29.086Z,101977.00
2023-03-03T14:02:02.549Z,101991.41
2023-03-03T14:04:39.457Z,101990.50
2023-03-03T14:07:15.496Z,101988.31
2023-03-03T14:10:03.219Z,101982.78
2023-03-03T14:12:43.574Z,101982.88
2023-03-03T14:15:20.703Z,101969.59
2023-03-03T14:18:00.934Z,101967.75
2023-03-03T14:20:31.220Z,101959.91
2023-03-03T14:23:02.854Z,101965.75
2023-03-03T14:25:53.731Z,101959.19
2023-03-03T14:28:23.320Z,101955.31
2023-03-03T14:30:54.851Z,101961.69
2023-03-03T14:33:30.747Z,101950.72
2023-03-03T14:36:06.872Z,101954.47
2023-03-03T14:38:41.433Z,101944.59
2023-03-03T14:41:18.999Z,101950.28
2023-03-03T14:43:57.694Z,101950.31
2023-03-03T14:46:39.608Z,101935.47
2023-03-03T14:49:14.552Z,101946.94
2023-03-03T14:51:45.334Z,101939.34
2023-03-03T14:54:23.508Z,101928.47
2023-03-03T14:57:13.304Z,101926.81
2023-03-03T14:59:41.709Z,101933.53
2023-03-03T15:02:30.464Z,101923.16
2023-03-03T15:05:22.067Z,101922.16
2023-03-03T15:07:54.568Z,101923.88
2023-03-03T15:10:34.827Z,101928.78
2023-03-03T15:13:33.845Z,101922.53
2023-03-03T15:16:11.328Z,101921.16
2023-03-03T15:19:03.376Z,101908.13
2023-03-03T15:21:34.067Z,101907.78
2023-03-03T15:24:06.479Z,101911.50
2023-03-03T15:26:44.738Z,101904.53
2023-03-03T15:29:18.560Z,101913.44
2023-03-03T15:31:56.825Z,101905.81
2023-03-03T15:34:38.816Z,101902.72
2023-03-03T15:37:30.662Z,101911.63
2023-03-03T15:40:05.947Z,101909.03
2023-03-03T15:42:39.260Z,101897.81
2023-03-03T15:45:14.111Z,101898.72
2023-03-03T15:48:06.369Z,101898.41
2023-03-03T15:50:48.381Z,101896.09
2023-03-03T15:53:28.470Z,101891.09
2023-03-03T15:56:08.869Z,101890.03
2023-03-03T15:59:01.783Z,101886.13
2023-03-03T16:01:34.959Z,101881.09
2023-03-03T16:04:07.682Z,101879.59
2023-03-03T16:06:46.372Z,101876.56
2023-03-03T16:09:30.036Z,101876.19
2023-03-03T16:12:07.870Z,101876.13
2023-03-03T16:14:53.353Z,101873.94
2023-03-03T16:17:34.782Z,101871.00
2023-03-03T16:20:14.200Z,101873.09
2023-03-03T16:23:04.837Z,101867.59
2023-03-03T16:25:53.427Z,101863.38
2023-03-03T16:28:28.513Z,101872.72
2023-03-03T16:31:04.666Z,101874.00
2023-03-03T16:33:43.824Z,101873.34
2023-03-03T16:36:24.261Z,101873.03
2023-03-03T16:38:59.212Z,101871.63
2023-03-03T16:41:39.678Z,101868.31
2023-03-03T16:44:19.976Z,101868.56
2023-03-03T16:46:50.649Z,101875.63
2023-03-03T16:49:26.173Z,101864.72
2023-03-03T16:52:02.252Z,101858.59
2023-03-03T16:54:35.822Z,101865.38
2023-03-03T16:57:12.160Z,101866.84
2023-03-03T17:00:03.988Z,101860.88
2023-03-03T17:03:16.589Z,101866.91
2023-03-03T17:05:53.422Z,101865.81
2023-03-03T17:08:47.914Z,101872.56
2023-03-03T17:11:22.563Z,101871.97
2023-03-03T17:14:08.007Z,101870.78
2023-03-03T17:16:52.474Z,101867.84
2023-03-03T17:19:32.664Z,101862.75
2023-03-03T17:22:13.757Z,101863.34
2023-03-03T17:24:55.530Z,101870.72
2023-03-03T17:27:34.215Z,101858.09
2023-03-03T17:30:15.543Z,101865.06
2023-03-03T17:33:22.032Z,101870.94
2023-03-03T17:36:07.617Z,101870.31
2023-03-03T17:38:49.274Z,101871.94
2023-03-03T17:41:25.411Z,101868.59
2023-03-03T17:44:03.029Z,101868.66
2023-03-03T17:46:37.098Z,101877.09
2023-03-03T17:49:47.712Z,101860.69
2023-03-03T17:52:35.621Z,101853.44
2023-03-03T17:55:35.135Z,101858.09
2023-03-03T17:58:26.440Z,101856.16
2023-03-03T18:01:05.914Z,101867.22
2023-03-03T18:04:06.999Z,101852.66
2023-03-03T18:07:05.957Z,101855.22
2023-03-03T18:09:48.162Z,101847.63
2023-03-03T18:12:27.967Z,101849.16
2023-03-03T18:15:24.364Z,101849.41
2023-03-03T18:18:05.809Z,101859.97
2023-03-03T18:21:01.015Z,101858.94
2023-03-03T18:23:42.719Z,101852.78
2023-03-03T18:26:38.241Z,101840.13
2023-03-03T18:29:24.929Z,101837.47
2023-03-03T18:32:05.677Z,101835.84
2023-03-03T18:34:38.977Z,101828.00
2023-03-03T18:37:12.069Z,101838.69
2023-03-03T18:39:43.406Z,101832.53
2023-03-03T18:42:40.069Z,101823.13
2023-03-03T18:45:43.765Z,101836.28
2023-03-03T18:48:14.136Z,101831.56
2023-03-03T18:50:43.844Z,101831.69
2023-03-03T18:53:28.890Z,101843.13
2023-03-03T18:55:58.831Z,101835.09
2023-03-03T18:58:38.496Z,101832.66
2023-03-03T19:01:40.038Z,101833.75
2023-03-03T19:04:18.594Z,101834.03
2023-03-03T19:07:11.850Z,101827.28
2023-03-03T19:09:57.069Z,101827.78
2023-03-03T19:12:46.664Z,101818.59
2023-03-03T19:15:48.361Z,101823.41
2023-03-03T19:18:19.375Z,101824.94
2023-03-03T19:20:53.993Z,101828.25
2023-03-03T19:23:23.911Z,101819.06
2023-03-03T19:26:20.084Z,101816.72
2023-03-03T19:28:57.342Z,101812.97
2023-03-03T19:31:33.727Z,101813.63
2023-03-03T19:34:08.558Z,101806.00
2023-03-03T19:37:02.337Z,101808.31
2023-03-03T19:39:46.430Z,101806.84
2023-03-03T19:42:21.407Z,101797.28
2023-03-03T19:45:03.064Z,101805.09
2023-03-03T19:47:39.815Z,101812.03
2023-03-03T19:50:18.739Z,101808.72
2023-03-03T19:52:53.783Z,101808.91
2023-03-03T19:55:41.486Z,101812.19
2023-03-03T19:58:22.380Z,101801.97
2023-03-03T20:00:56.834Z,101805.66
2023-03-03T20:03:54.568Z,101800.84
2023-03-03T20:06:38.755Z,101802.97
2023-03-03T20:09:17.690Z,101798.03
2023-03-03T20:12:09.533Z,101802.91
2023-03-03T20:14:45.961Z,101795.59
2023-03-03T20:17:36.347Z,101798.63
2023-03-03T20:20:14.727Z,101795.78
2023-03-03T20:22:53.995Z,101794.69
2023-03-03T20:25:29.469Z,101790.78
2023-03-03T20:28:06.592Z,101781.00
2023-03-03T20:30:55.409Z,101781.69
2023-03-03T20:33:39.593Z,101795.78
2023-03-03T20:36:16.213Z,101793.00
2023-03-03T20:38:54.080Z,101800.75
2023-03-03T20:41:37.108Z,101796.53
2023-03-03T20:44:18.358Z,101793.44
2023-03-03T20:46:55.517Z,101786.34
2023-03-03T20:49:39.154Z,101781.13
2023-03-03T20:52:13.120Z,101779.34
2023-03-03T20:54:47.058Z,101774.31
2023-03-03T20:57:22.947Z,101774.72
2023-03-03T21:00:00.509Z,101770.56
2023-03-03T21:02:37.833Z,101779.91
2023-03-03T21:05:15.567Z,101776.75
2023-03-03T21:07:53.501Z,101779.69
2023-03-03T21:10:25.196Z,101768.00
2023-03-03T21:12:56.104Z,101763.06
2023-03-03T21:15:27.868Z,101768.50
2023-03-03T21:17:57.641Z,101767.34
2023-03-03T21:20:29.466Z,101775.91
2023-03-03T21:22:58.411Z,101770.16
2023-03-03T21:25:52.110Z,101766.03
2023-03-03T21:28:25.772Z,101758.31
2023-03-03T21:31:12.311Z,101751.31
2023-03-03T21:33:46.263Z,101753.78
2023-03-03T21:36:15.780Z,101744.72
2023-03-03T21:38:43.745Z,101745.81
2023-03-03T21:41:12.689Z,101738.72
2023-03-03T21:43:44.543Z,101745.97
2023-03-03T21:46:13.416Z,101735.19
2023-03-03T21:48:42.752Z,101726.91
2023-03-03T21:51:13.928Z,101742.50
2023-03-03T21:53:42.858Z,101734.44
2023-03-03T21:56:10.987Z,101740.03
2023-03-03T21:58:38.923Z,101732.72
2023-03-03T22:01:08.677Z,101732.16
2023-03-03T22:03:39.035Z,101734.59
2023-03-03T22:06:07.802Z,101717.22
2023-03-03T22:08:35.851Z,101720.94
2023-03-03T22:11:03.760Z,101713.03
2023-03-03T22:13:31.625Z,101712.00
2023-03-03T22:15:59.534Z,101718.75
2023-03-03T22:18:29.067Z,101707.66
2023-03-03T22:20:56.938Z,101706.66
2023-03-03T22:23:24.835Z,101703.88
2023-03-03T22:25:52.838Z,101708.41
2023-03-03T22:28:20.724Z,101702.75
2023-03-03T22:30:48.845Z,101695.09
2023-03-03T22:33:16.817Z,101691.84
2023-03-03T22:35:46.128Z,101678.66
2023-03-03T22:38:14.059Z,101679.16
2023-03-03T22:40:42.033Z,101685.25
2023-03-03T22:43:11.140Z,101675.06
2023-03-03T22:45:39.076Z,101680.72
2023-03-03T22:48:07.745Z,101684.53
2023-03-03T22:50:39.434Z,101674.81
2023-03-03T22:53:08.837Z,101678.41
2023-03-03T22:55:37.211Z,101664.81
2023-03-03T22:58:07.492Z,101669.22
2023-03-03T23:00:38.340Z,101665.19
2023-03-03T23:03:06.608Z,101654.75
2023-03-03T23:05:35.803Z,101646.97
2023-03-03T23:08:04.300Z,101640.53
2023-03-03T23:10:33.692Z,101641.81
2023-03-03T23:13:01.929Z,101633.50
2023-03-03T23:15:29.959Z,101635.56
2023-03-03T23:17:57.882Z,101642.72
2023-03-03T23:20:27.916Z,101634.75
2023-03-03T23:22:56.617Z,101636.56
2023-03-03T23:25:25.598Z,101626.72
2023-03-03T23:27:55.153Z,101630.22
2023-03-03T23:30:24.106Z,101609.94
2023-03-03T23:32:52.091Z,101622.16
2023-03-03T23:35:20.215Z,101619.22
2023-03-03T23:37:48.395Z,101623.44
2023-03-03T23:40:17.307Z,101622.56
2023-03-03T23:42:45.919Z,101619.25
2023-03-03T23:45:15.228Z,101609.69
2023-03-03T23:47:43.136Z,101621.16
2023-03-03T23:50:12.899Z,101628.47
2023-03-03T23:52:41.196Z,101618.56
2023-03-03T23:55:10.014Z,101608.66
2023-03-03T23:57:37.969Z,101616.59
